Schaerbeek, Belgium
Current Conditions -  °F | °C
As of 6:20 AM on Tuesday 27 Jan 2015 (Local Time) from EBBR Reporting Station
Few Clouds Few Clouds  
Wind Chill: 29°   Ceiling: Unl
Heat Index: 36°   Visibility: 6mi
Dew Point: 34°   Wind: 9mph
Humidity: 93%   Direction: 280°W
Pressure: 30.27"   Gusts: NA
Location:  50.86°N, 4.39°E
Report Text: EBBR 270520Z 28008KT 9999 FEW020 02/01 Q1025 NOSIG
Loading
Personal Weather Stations






























Interactive Weather Map New forecast layout! Learn more

10-Day Weather Forecast

Advertisements
Track Severe Weather on mobile